URMM

Details ICAO URMM (MRV)
Name MINERALNYYE VODY
Region Russia
Timezone Europe/Moscow (UTC+3.0)
Plans Departing 126
Arriving 120
Stats Elevation 1,054 ft / 321 m (AMSL)
Location 44.225100° 43.081900°
Runways 1
Magnetic Variation 7.462° E
Sunrise 2018-10-24 03:34:39 UTC / 2018-10-24 06:34:39 Local
Sunset 2018-10-24 14:11:28 UTC / 2018-10-24 17:11:28 Local
Advertisement - Login to hide

Runways

ID Width Length Bearing (true/mag) Surface Threshold Overrun Markings Lighting
12 197 ft / 60 m 12,766 ft / 3,891 m 122.28° / 114.81° CONCRETE 0 ft / 0 m 240 ft / 73 m APP CENTERLINE EDGE THRESHOLD MALS TDZ
30 197 ft / 60 m 12,766 ft / 3,891 m 302.31° / 294.84° CONCRETE 0 ft / 0 m 250 ft / 76 m APP CENTERLINE EDGE THRESHOLD MALS

Map

Weather


0- 5 10 15 20 25 30 35+ Temperature / °C

Clouds and Precipitation
Forecast for 2018-10-24 00:00 UTC. Updated an hour ago

Ground ~20,000 ft ~40,000 ft Winds

METAR

URMM 232230Z 06002MPS 9000 SCT032 13/08 Q1011 R30/090070 NOSIG RMK QFE730/0974

TAF

TAF URMM 231958Z 2321/2421 10003G08MPS 3100 BR BKN011 TX19/2411Z TN08/2403Z TEMPO 2321/2406 VRB01MPS 0300 FG OVC002 BECMG 2406/2408 9999 NSW BKN020 TEMPO 2407/2418 10006G14MPS

Frequencies

Tower 128.00 MHz START
Recorded 127.40 MHz ATIS
Approach 119.30 MHz
Ground 121.90 MHz TAXIING
Warning: Do not use this data for real-world aviation or navigation. No guarantee of current accuracy is given.